createdAt,value
2023-03-26T00:01:10.989Z,4051.00
2023-03-26T00:05:11.129Z,4207.00
2023-03-26T00:09:11.194Z,4344.00
2023-03-26T00:13:11.325Z,5140.00
2023-03-26T00:17:11.414Z,5143.00
2023-03-26T00:21:11.492Z,6242.00
2023-03-26T00:25:11.613Z,6014.00
2023-03-26T00:29:11.747Z,5406.00
2023-03-26T00:33:11.932Z,4994.00
2023-03-26T00:37:11.959Z,5140.00
2023-03-26T00:41:12.013Z,5423.00
2023-03-26T00:45:12.089Z,5354.00
2023-03-26T00:49:12.197Z,5360.00
2023-03-26T00:53:12.301Z,5681.00
2023-03-26T00:57:14.910Z,6390.00
2023-03-26T01:01:13.538Z,5037.00
2023-03-26T01:05:12.494Z,5183.00
2023-03-26T01:09:12.339Z,4614.00
2023-03-26T01:13:12.329Z,4594.00
2023-03-26T01:17:12.474Z,4595.00
2023-03-26T01:21:12.634Z,4733.00
2023-03-26T01:25:12.737Z,4791.00
2023-03-26T01:29:12.901Z,4935.00
2023-03-26T01:33:13.082Z,4632.00
2023-03-26T01:37:13.153Z,4563.00
2023-03-26T01:41:13.238Z,4752.00
2023-03-26T01:45:13.317Z,4486.00
2023-03-26T01:49:13.823Z,4601.00
2023-03-26T01:53:13.576Z,4960.00
2023-03-26T01:57:13.699Z,5091.00
2023-03-26T02:01:13.872Z,4769.00
2023-03-26T02:05:13.998Z,4657.00
2023-03-26T02:09:14.121Z,4039.00
2023-03-26T02:13:14.247Z,4360.00
2023-03-26T02:17:14.367Z,4197.00
2023-03-26T02:21:14.497Z,5339.00
2023-03-26T02:25:14.593Z,5372.00
2023-03-26T02:29:14.671Z,5923.00
2023-03-26T02:33:14.771Z,6346.00
2023-03-26T02:37:14.867Z,6257.00
2023-03-26T02:41:14.964Z,5566.00
2023-03-26T02:45:15.760Z,5771.00
2023-03-26T02:49:15.175Z,5927.00
2023-03-26T02:53:15.243Z,6497.00
2023-03-26T02:57:15.445Z,10405.00
2023-03-26T03:01:15.626Z,10476.00
2023-03-26T03:05:15.721Z,8374.00
2023-03-26T03:09:15.903Z,7592.00
2023-03-26T03:13:15.994Z,7614.00
2023-03-26T03:17:16.148Z,7081.00
2023-03-26T03:21:16.280Z,6494.00
2023-03-26T03:25:16.428Z,6420.00
2023-03-26T03:29:16.563Z,5466.00
2023-03-26T03:33:16.688Z,6485.00
2023-03-26T03:37:16.806Z,6879.00
2023-03-26T03:41:17.014Z,9611.00
2023-03-26T03:45:17.092Z,10207.00
2023-03-26T03:49:17.173Z,9203.00
2023-03-26T03:53:17.304Z,8702.00
2023-03-26T03:57:17.454Z,7753.00
2023-03-26T04:01:17.568Z,7285.00
2023-03-26T04:05:17.653Z,7944.00
2023-03-26T04:09:17.824Z,8854.00
2023-03-26T04:13:17.925Z,9489.00
2023-03-26T04:17:18.031Z,9392.00
2023-03-26T04:21:18.178Z,9465.00
2023-03-26T04:25:18.269Z,9180.00
2023-03-26T04:29:18.424Z,8409.00
2023-03-26T04:33:18.576Z,9588.00
2023-03-26T04:37:18.689Z,9565.00
2023-03-26T04:41:18.774Z,9369.00
2023-03-26T04:45:18.895Z,9625.00
2023-03-26T04:49:18.997Z,9292.00
2023-03-26T04:53:19.102Z,9441.00
2023-03-26T04:57:19.244Z,9455.00
2023-03-26T05:01:19.383Z,10554.00
2023-03-26T05:05:19.494Z,10289.00
2023-03-26T05:09:19.627Z,9731.00
2023-03-26T05:13:19.786Z,10974.00
2023-03-26T05:17:19.870Z,11857.00
2023-03-26T05:21:19.984Z,12814.00
2023-03-26T05:25:20.095Z,13389.00
2023-03-26T05:29:20.196Z,13451.00
2023-03-26T05:33:20.437Z,12246.00
2023-03-26T05:37:20.489Z,10806.00
2023-03-26T05:41:20.655Z,13781.00
2023-03-26T05:45:21.027Z,14437.00
2023-03-26T05:49:20.856Z,14270.00
2023-03-26T05:53:20.921Z,13579.00
2023-03-26T05:57:21.078Z,13763.00
2023-03-26T06:01:21.233Z,13038.00
2023-03-26T06:05:21.328Z,12723.00
2023-03-26T06:09:21.421Z,11946.00
2023-03-26T06:13:21.428Z,11465.00
2023-03-26T06:17:21.668Z,10775.00
2023-03-26T06:21:21.656Z,10955.00
2023-03-26T06:25:21.730Z,12030.00
2023-03-26T06:29:21.838Z,11854.00
2023-03-26T06:33:24.435Z,12384.00
2023-03-26T06:37:21.939Z,12399.00
2023-03-26T06:41:21.856Z,12661.00
2023-03-26T06:45:21.865Z,13010.00
2023-03-26T06:49:21.881Z,12925.00
2023-03-26T06:53:21.749Z,12864.00
2023-03-26T06:57:21.702Z,11810.00
2023-03-26T07:01:21.781Z,11458.00
2023-03-26T07:05:21.662Z,11832.00
2023-03-26T07:09:21.623Z,11687.00
2023-03-26T07:13:21.950Z,11625.00
2023-03-26T07:17:21.573Z,11181.00
2023-03-26T07:21:21.557Z,10875.00
2023-03-26T07:25:21.481Z,9861.00
2023-03-26T07:29:21.439Z,8596.00
2023-03-26T07:33:21.394Z,7580.00
2023-03-26T07:37:21.365Z,8120.00
2023-03-26T07:41:21.308Z,8425.00
2023-03-26T07:45:21.405Z,7390.00
2023-03-26T07:49:21.514Z,7656.00
2023-03-26T07:53:21.619Z,7206.00
2023-03-26T07:57:21.680Z,6947.00
2023-03-26T08:01:21.774Z,5881.00
2023-03-26T08:05:21.945Z,5883.00
2023-03-26T08:09:22.041Z,6052.00
2023-03-26T08:13:22.127Z,6320.00
2023-03-26T08:17:22.272Z,5521.00
2023-03-26T08:21:22.327Z,5095.00
2023-03-26T08:25:22.478Z,5542.00
2023-03-26T08:29:22.614Z,5188.00
2023-03-26T08:33:22.753Z,5779.00
2023-03-26T08:37:22.848Z,5445.00
2023-03-26T08:41:22.911Z,5745.00
2023-03-26T08:45:23.027Z,5918.00
2023-03-26T08:49:25.269Z,5518.00
2023-03-26T08:53:23.133Z,4745.00
2023-03-26T08:57:23.052Z,5978.00
2023-03-26T09:01:23.145Z,5098.00
2023-03-26T09:05:23.014Z,5465.00
2023-03-26T09:09:22.984Z,5359.00
2023-03-26T09:13:22.950Z,6234.00
2023-03-26T09:17:23.049Z,6232.00
2023-03-26T09:21:22.848Z,6284.00
2023-03-26T09:25:22.796Z,4575.00
2023-03-26T09:29:22.772Z,4495.00
2023-03-26T09:33:22.755Z,4157.00
2023-03-26T09:37:22.678Z,4256.00
2023-03-26T09:41:22.669Z,3659.00
2023-03-26T09:45:22.641Z,3991.00
2023-03-26T09:49:22.585Z,3920.00
2023-03-26T09:53:22.568Z,4328.00
2023-03-26T09:57:22.776Z,4183.00
2023-03-26T10:01:22.860Z,4388.00
2023-03-26T10:05:22.917Z,3513.00
2023-03-26T10:09:23.053Z,3887.00
2023-03-26T10:13:23.117Z,5093.00
2023-03-26T10:17:23.405Z,4374.00
2023-03-26T10:21:25.645Z,4016.00
2023-03-26T10:25:23.274Z,3766.00
2023-03-26T10:29:23.308Z,3679.00
2023-03-26T10:33:25.099Z,3676.00
2023-03-26T10:37:23.148Z,4362.00
2023-03-26T10:41:23.120Z,4149.00
2023-03-26T10:45:23.090Z,4013.00
2023-03-26T10:49:23.092Z,4091.00
2023-03-26T10:53:23.167Z,4142.00
2023-03-26T10:57:23.263Z,3956.00
2023-03-26T11:01:23.416Z,3685.00
2023-03-26T11:05:23.478Z,3774.00
2023-03-26T11:09:23.603Z,4398.00
2023-03-26T11:13:23.751Z,4271.00
2023-03-26T11:17:40.181Z,3876.00
2023-03-26T11:21:24.798Z,3369.00
2023-03-26T11:25:23.708Z,3257.00
2023-03-26T11:29:32.414Z,3627.00
2023-03-26T11:33:24.658Z,3230.00
2023-03-26T11:37:23.608Z,4159.00
2023-03-26T11:41:23.640Z,3822.00
2023-03-26T11:45:23.835Z,3335.00
2023-03-26T11:49:23.887Z,3233.00
2023-03-26T11:53:24.003Z,3969.00
2023-03-26T11:57:24.145Z,3967.00
2023-03-26T12:01:24.301Z,4050.00
2023-03-26T12:05:24.408Z,4533.00
2023-03-26T12:09:24.470Z,4724.00
2023-03-26T12:13:24.634Z,3900.00
2023-03-26T12:17:31.502Z,3643.00
2023-03-26T12:21:25.711Z,3651.00
2023-03-26T12:25:24.761Z,3589.00
2023-03-26T12:29:24.673Z,4099.00
2023-03-26T12:33:24.738Z,5228.00
2023-03-26T12:37:24.783Z,5894.00
2023-03-26T12:44:42.801Z,5561.00
2023-03-26T12:45:25.905Z,5584.00
2023-03-26T12:49:24.852Z,5109.00
2023-03-26T12:53:24.755Z,3836.00
2023-03-26T12:57:24.895Z,2310.00
2023-03-26T13:01:24.996Z,2053.00
2023-03-26T13:05:25.064Z,1689.00
2023-03-26T13:09:25.200Z,2307.00
2023-03-26T13:13:25.316Z,2832.00
2023-03-26T13:17:25.462Z,3238.00
2023-03-26T13:21:25.569Z,3527.00
2023-03-26T13:25:25.725Z,3937.00
2023-03-26T13:29:25.850Z,3897.00
2023-03-26T13:33:25.953Z,3667.00
2023-03-26T13:37:26.038Z,4421.00
2023-03-26T13:41:26.208Z,3935.00
2023-03-26T13:45:26.373Z,5200.00
2023-03-26T13:49:26.431Z,4535.00
2023-03-26T13:53:26.578Z,3354.00
2023-03-26T13:57:26.667Z,3208.00
2023-03-26T14:01:26.809Z,3844.00
2023-03-26T14:05:26.832Z,3609.00
2023-03-26T14:09:26.994Z,4470.00
2023-03-26T14:13:27.168Z,4416.00
2023-03-26T14:17:27.399Z,4956.00
2023-03-26T14:21:27.432Z,5422.00
2023-03-26T14:25:27.597Z,5445.00
2023-03-26T14:29:27.697Z,5410.00
2023-03-26T14:33:28.080Z,4081.00
2023-03-26T14:37:28.330Z,4845.00
2023-03-26T14:41:27.883Z,4963.00
2023-03-26T14:45:27.975Z,7151.00
2023-03-26T14:49:28.176Z,7123.00
2023-03-26T14:53:28.201Z,8462.00
2023-03-26T14:57:28.349Z,8096.00
2023-03-26T15:01:28.573Z,9151.00
2023-03-26T15:05:28.648Z,9814.00
2023-03-26T15:09:28.764Z,8555.00
2023-03-26T15:13:28.875Z,8839.00
2023-03-26T15:17:29.011Z,8654.00
2023-03-26T15:21:29.110Z,9151.00
2023-03-26T15:25:29.213Z,9404.00
2023-03-26T15:29:29.325Z,8486.00
2023-03-26T15:33:29.441Z,10046.00
2023-03-26T15:37:29.520Z,10941.00
2023-03-26T15:41:29.654Z,10302.00
2023-03-26T15:45:29.736Z,10474.00
2023-03-26T15:49:29.937Z,10670.00
2023-03-26T15:53:30.091Z,10603.00
2023-03-26T15:57:30.321Z,9627.00
2023-03-26T16:01:32.514Z,9118.00
2023-03-26T16:05:30.526Z,8390.00
2023-03-26T16:09:30.612Z,8809.00
2023-03-26T16:13:30.797Z,8139.00
2023-03-26T16:17:30.932Z,7952.00
2023-03-26T16:21:32.138Z,8144.00
2023-03-26T16:25:31.055Z,7607.00
2023-03-26T16:29:31.146Z,7577.00
2023-03-26T16:33:31.189Z,8982.00
2023-03-26T16:37:31.346Z,8612.00
2023-03-26T16:41:31.412Z,7441.00
2023-03-26T16:45:31.617Z,7138.00
2023-03-26T16:49:31.570Z,7189.00
2023-03-26T16:53:31.647Z,8103.00
2023-03-26T16:57:31.783Z,8163.00
2023-03-26T17:01:31.980Z,8354.00
2023-03-26T17:05:32.030Z,8356.00
2023-03-26T17:09:32.134Z,9007.00
2023-03-26T17:13:32.364Z,9090.00
2023-03-26T17:17:32.627Z,8851.00
2023-03-26T17:21:45.724Z,9405.00
2023-03-26T17:25:33.576Z,9660.00
2023-03-26T17:29:32.540Z,9664.00
2023-03-26T17:33:32.492Z,10303.00
2023-03-26T17:37:32.578Z,10286.00
2023-03-26T17:41:32.633Z,10317.00
2023-03-26T17:45:32.775Z,10096.00
2023-03-26T17:49:32.862Z,10369.00
2023-03-26T17:53:33.041Z,10279.00
2023-03-26T17:57:33.150Z,9581.00
2023-03-26T18:01:33.186Z,9157.00
2023-03-26T18:05:33.209Z,9068.00
2023-03-26T18:09:33.297Z,9297.00
2023-03-26T18:13:33.421Z,8980.00
2023-03-26T18:17:33.512Z,8634.00
2023-03-26T18:21:33.574Z,8680.00
2023-03-26T18:25:33.709Z,8639.00
2023-03-26T18:29:33.841Z,8849.00
2023-03-26T18:33:34.013Z,8965.00
2023-03-26T18:37:34.113Z,8272.00
2023-03-26T18:41:34.204Z,7516.00
2023-03-26T18:45:34.311Z,6359.00
2023-03-26T18:49:34.386Z,5440.00
2023-03-26T18:53:34.544Z,5826.00
2023-03-26T18:57:34.687Z,6956.00
2023-03-26T19:01:34.784Z,6881.00
2023-03-26T19:05:34.866Z,6699.00
2023-03-26T19:09:34.945Z,7109.00
2023-03-26T19:13:35.022Z,7622.00
2023-03-26T19:17:35.298Z,8164.00
2023-03-26T19:21:35.240Z,7636.00
2023-03-26T19:25:35.366Z,7650.00
2023-03-26T19:29:35.407Z,7298.00
2023-03-26T19:33:35.564Z,7916.00
2023-03-26T19:37:35.722Z,7863.00
2023-03-26T19:41:35.946Z,7737.00
2023-03-26T19:45:36.044Z,8100.00
2023-03-26T19:49:36.098Z,7965.00
2023-03-26T19:53:36.264Z,7416.00
2023-03-26T19:57:36.364Z,6768.00
2023-03-26T20:01:36.514Z,6240.00
2023-03-26T20:05:36.618Z,6242.00
2023-03-26T20:09:36.648Z,6721.00
2023-03-26T20:13:36.789Z,7320.00
2023-03-26T20:17:36.917Z,7178.00
2023-03-26T20:21:37.023Z,7362.00
2023-03-26T20:25:37.147Z,7858.00
2023-03-26T20:29:37.245Z,8487.00
2023-03-26T20:33:37.366Z,8368.00
2023-03-26T20:37:37.412Z,8549.00
2023-03-26T20:41:37.466Z,8822.00
2023-03-26T20:45:37.619Z,8337.00
2023-03-26T20:49:37.804Z,7544.00
2023-03-26T20:53:37.847Z,7113.00
2023-03-26T20:57:37.960Z,6904.00
2023-03-26T21:01:38.335Z,6101.00
2023-03-26T21:05:38.209Z,5870.00
2023-03-26T21:09:38.342Z,5668.00
2023-03-26T21:13:38.461Z,4142.00
2023-03-26T21:17:38.635Z,3992.00
2023-03-26T21:21:38.707Z,4507.00
2023-03-26T21:25:38.849Z,4299.00
2023-03-26T21:29:39.023Z,2842.00
2023-03-26T21:33:39.169Z,3362.00
2023-03-26T21:37:39.372Z,2698.00
2023-03-26T21:41:39.498Z,2433.00
2023-03-26T21:45:39.656Z,2145.00
2023-03-26T21:49:39.730Z,854.00
2023-03-26T21:53:39.785Z,862.00
2023-03-26T21:57:39.925Z,412.00
2023-03-26T22:01:40.097Z,440.00
2023-03-26T22:05:40.211Z,603.00
2023-03-26T22:09:40.324Z,516.00
2023-03-26T22:13:40.389Z,871.00
2023-03-26T22:17:40.493Z,1409.00
2023-03-26T22:21:40.673Z,1086.00
2023-03-26T22:25:40.777Z,2472.00
2023-03-26T22:29:40.888Z,3725.00
2023-03-26T22:33:41.006Z,3479.00
2023-03-26T22:37:41.084Z,3401.00
2023-03-26T22:41:41.262Z,3667.00
2023-03-26T22:45:41.307Z,3638.00
2023-03-26T22:49:41.378Z,2553.00
2023-03-26T22:53:41.515Z,2492.00
2023-03-26T22:57:41.648Z,2356.00
2023-03-26T23:01:41.810Z,548.00
2023-03-26T23:05:41.875Z,484.00
2023-03-26T23:09:42.061Z,608.00
2023-03-26T23:13:42.114Z,400.00
2023-03-26T23:17:42.229Z,866.00
2023-03-26T23:21:42.375Z,449.00
2023-03-26T23:25:42.526Z,400.00
2023-03-26T23:29:42.624Z,400.00
2023-03-26T23:33:42.718Z,645.00
2023-03-26T23:37:42.811Z,2229.00
2023-03-26T23:41:43.009Z,2094.00
2023-03-26T23:45:43.126Z,2518.00
2023-03-26T23:49:43.150Z,1725.00
2023-03-26T23:53:43.323Z,3181.00
2023-03-26T23:57:43.373Z,3936.00
